createdAt,value
2023-02-18T00:01:39.154Z,7.50
2023-02-18T00:05:40.599Z,7.10
2023-02-18T00:09:42.040Z,8.75
2023-02-18T00:13:43.600Z,4.63
2023-02-18T00:17:46.424Z,6.97
2023-02-18T00:21:48.181Z,6.55
2023-02-18T00:25:49.644Z,5.70
2023-02-18T00:29:51.100Z,6.53
2023-02-18T00:33:54.390Z,7.70
2023-02-18T00:37:55.978Z,5.03
2023-02-18T00:41:57.591Z,5.28
2023-02-18T00:45:59.112Z,5.90
2023-02-18T00:50:02.115Z,9.02
2023-02-18T00:54:03.709Z,6.43
2023-02-18T00:58:05.233Z,4.47
2023-02-18T01:02:06.759Z,5.70
2023-02-18T01:06:11.397Z,8.85
2023-02-18T01:10:13.209Z,9.38
2023-02-18T01:14:14.715Z,9.73
2023-02-18T01:18:16.377Z,7.38
2023-02-18T01:22:19.341Z,7.88
2023-02-18T01:26:20.960Z,5.00
2023-02-18T01:30:23.233Z,5.85
2023-02-18T01:34:24.820Z,3.80
2023-02-18T01:38:27.813Z,6.25
2023-02-18T01:42:29.908Z,7.50
2023-02-18T01:46:31.497Z,10.50
2023-02-18T01:50:35.833Z,5.38
2023-02-18T01:54:42.815Z,5.78
2023-02-18T01:58:45.020Z,5.93
2023-02-18T02:02:48.473Z,7.18
2023-02-18T02:06:50.167Z,6.45
2023-02-18T02:11:08.097Z,7.55
2023-02-18T02:15:22.890Z,11.07
2023-02-18T02:19:59.608Z,5.85
2023-02-18T02:24:45.697Z,5.68
2023-02-18T02:29:22.231Z,16.55
2023-02-18T02:34:04.615Z,8.13
2023-02-18T02:38:13.898Z,8.52
2023-02-18T02:42:24.392Z,6.57
2023-02-18T02:46:31.388Z,10.68
2023-02-18T02:50:38.726Z,5.78
2023-02-18T02:54:41.603Z,7.35
2023-02-18T02:58:44.804Z,6.97
2023-02-18T03:03:05.331Z,6.68
2023-02-18T03:07:40.378Z,9.55
2023-02-18T03:11:51.553Z,7.13
2023-02-18T03:15:57.088Z,9.13
2023-02-18T03:20:08.615Z,6.35
2023-02-18T03:24:16.350Z,8.20
2023-02-18T03:28:22.553Z,4.95
2023-02-18T03:32:26.799Z,7.20
2023-02-18T03:36:28.655Z,7.20
2023-02-18T03:40:30.835Z,10.88
2023-02-18T03:44:33.702Z,6.78
2023-02-18T03:48:35.155Z,12.57
2023-02-18T03:52:36.616Z,9.05
2023-02-18T03:56:38.796Z,9.45
2023-02-18T04:00:41.565Z,6.45
2023-02-18T04:04:43.057Z,9.43
2023-02-18T04:08:44.974Z,8.13
2023-02-18T04:12:46.552Z,10.55
2023-02-18T04:16:49.393Z,7.32
2023-02-18T04:20:50.872Z,6.30
2023-02-18T04:24:52.322Z,10.38
2023-02-18T04:28:53.804Z,8.88
2023-02-18T04:32:56.593Z,7.00
2023-02-18T04:36:58.091Z,6.47
2023-02-18T04:40:59.588Z,15.65
2023-02-18T04:45:01.051Z,8.48
2023-02-18T04:49:03.836Z,10.63
2023-02-18T04:53:05.423Z,9.25
2023-02-18T04:57:06.912Z,7.60
2023-02-18T05:01:08.361Z,8.98
2023-02-18T05:05:11.427Z,8.52
2023-02-18T05:09:13.299Z,7.10
2023-02-18T05:13:14.991Z,8.45
2023-02-18T05:17:16.446Z,7.22
2023-02-18T05:21:19.323Z,13.90
2023-02-18T05:25:21.085Z,8.27
2023-02-18T05:29:22.615Z,10.82
2023-02-18T05:33:24.259Z,11.05
2023-02-18T05:37:27.044Z,13.25
2023-02-18T05:41:28.480Z,8.05
2023-02-18T05:45:29.944Z,8.02
2023-02-18T05:49:32.498Z,10.65
2023-02-18T05:53:35.288Z,9.23
2023-02-18T05:57:36.751Z,10.15
2023-02-18T06:01:38.196Z,9.35
2023-02-18T06:05:39.677Z,13.63
2023-02-18T06:09:42.500Z,13.00
2023-02-18T06:13:44.074Z,11.82
2023-02-18T06:17:45.551Z,19.60
2023-02-18T06:21:47.047Z,12.50
2023-02-18T06:25:49.915Z,30.30
2023-02-18T06:29:51.412Z,13.10
2023-02-18T06:33:52.894Z,12.77
2023-02-18T06:37:54.323Z,12.02
2023-02-18T06:41:57.143Z,12.10
2023-02-18T06:45:58.686Z,15.52
2023-02-18T06:50:00.158Z,19.70
2023-02-18T06:54:01.642Z,15.68
2023-02-18T06:58:04.530Z,23.15
2023-02-18T07:02:06.030Z,20.55
2023-02-18T07:06:07.867Z,19.55
2023-02-18T07:10:10.209Z,19.77
2023-02-18T07:14:13.010Z,15.82
2023-02-18T07:18:14.512Z,19.45
2023-02-18T07:22:16.078Z,24.15
2023-02-18T07:26:17.675Z,19.70
2023-02-18T07:30:20.789Z,22.55
2023-02-18T07:34:22.335Z,21.92
2023-02-18T07:38:25.064Z,17.42
2023-02-18T07:42:26.674Z,17.63
2023-02-18T07:46:29.665Z,21.50
2023-02-18T07:50:31.219Z,15.32
2023-02-18T07:54:32.718Z,16.73
2023-02-18T07:58:36.643Z,16.27
2023-02-18T08:02:39.436Z,20.70
2023-02-18T08:06:43.387Z,16.85
2023-02-18T08:10:44.835Z,23.00
2023-02-18T08:14:46.323Z,16.45
2023-02-18T08:18:49.670Z,21.10
2023-02-18T08:22:51.157Z,18.77
2023-02-18T08:27:00.507Z,16.60
2023-02-18T08:31:03.417Z,15.25
2023-02-18T08:35:07.537Z,14.45
2023-02-18T08:39:08.983Z,19.23
2023-02-18T08:43:10.662Z,16.38
2023-02-18T08:48:18.239Z,15.55
2023-02-18T08:51:35.778Z,20.17
2023-02-18T08:55:41.179Z,15.70
2023-02-18T08:59:42.745Z,17.00
2023-02-18T09:03:44.294Z,15.07
2023-02-18T09:07:47.055Z,12.63
2023-02-18T09:11:49.247Z,17.02
2023-02-18T09:15:59.125Z,14.85
2023-02-18T09:20:00.928Z,17.08
2023-02-18T09:24:04.087Z,20.77
2023-02-18T09:28:05.590Z,17.85
2023-02-18T09:32:08.685Z,16.02
2023-02-18T09:36:10.422Z,15.38
2023-02-18T09:40:24.270Z,15.27
2023-02-18T09:44:29.253Z,28.25
2023-02-18T09:48:34.110Z,21.25
2023-02-18T09:52:36.880Z,11.52
2023-02-18T09:56:42.543Z,14.13
2023-02-18T10:04:46.232Z,11.73
2023-02-18T10:08:50.612Z,12.25
2023-02-18T10:12:54.608Z,5.03
2023-02-18T10:16:58.191Z,5.55
2023-02-18T10:21:09.621Z,5.60
2023-02-18T10:25:18.970Z,6.30
2023-02-18T10:29:23.095Z,4.57
2023-02-18T10:33:33.588Z,5.82
2023-02-18T10:37:51.744Z,6.15
2023-02-18T10:42:02.995Z,5.25
2023-02-18T10:46:18.510Z,7.70
2023-02-18T10:50:27.518Z,6.35
2023-02-18T10:54:48.872Z,6.45
2023-02-18T10:58:50.381Z,9.70
2023-02-18T11:03:15.569Z,7.00
2023-02-18T11:07:22.464Z,5.50
2023-02-18T11:11:29.366Z,7.45
2023-02-18T11:15:31.669Z,6.30
2023-02-18T11:19:39.636Z,6.13
2023-02-18T11:23:46.999Z,7.85
2023-02-18T11:27:51.143Z,4.95
2023-02-18T11:31:55.736Z,6.40
2023-02-18T11:36:05.295Z,6.78
2023-02-18T11:40:07.929Z,3.15
2023-02-18T11:44:21.032Z,7.70
2023-02-18T11:48:24.310Z,5.82
2023-02-18T11:52:29.203Z,6.20
2023-02-18T11:56:32.949Z,4.50
2023-02-18T12:00:39.294Z,4.65
2023-02-18T12:04:44.026Z,4.88
2023-02-18T12:08:51.378Z,7.57
2023-02-18T12:13:00.198Z,10.32
2023-02-18T12:17:32.421Z,4.75
2023-02-18T12:21:41.911Z,4.15
2023-02-18T12:25:55.451Z,3.50
2023-02-18T12:30:15.764Z,4.65
2023-02-18T12:34:39.174Z,5.78
2023-02-18T12:38:57.492Z,6.47
2023-02-18T12:43:10.798Z,8.82
2023-02-18T12:47:40.310Z,6.07
2023-02-18T12:51:53.562Z,7.55
2023-02-18T12:56:11.678Z,12.93
2023-02-18T13:00:49.402Z,5.05
2023-02-18T13:04:58.922Z,4.32
2023-02-18T13:09:10.461Z,6.00
2023-02-18T13:13:16.694Z,3.35
2023-02-18T13:17:21.128Z,5.93
2023-02-18T13:21:23.569Z,6.68
2023-02-18T13:25:25.170Z,7.13
2023-02-18T13:29:31.332Z,7.07
2023-02-18T13:33:44.465Z,6.28
2023-02-18T13:37:59.269Z,4.70
2023-02-18T13:42:24.461Z,5.38
2023-02-18T13:46:26.086Z,6.45
2023-02-18T13:50:32.669Z,5.53
2023-02-18T13:54:41.964Z,4.88
2023-02-18T13:58:48.773Z,7.70
2023-02-18T14:02:58.419Z,12.18
2023-02-18T14:07:29.380Z,6.65
2023-02-18T14:11:49.164Z,7.25
2023-02-18T14:15:57.479Z,4.38
2023-02-18T14:20:35.278Z,4.18
2023-02-18T14:24:48.153Z,5.28
2023-02-18T14:28:54.684Z,3.42
2023-02-18T14:32:58.824Z,4.65
2023-02-18T14:37:11.603Z,6.35
2023-02-18T14:41:27.847Z,2.90
2023-02-18T14:45:44.102Z,9.55
2023-02-18T14:49:49.610Z,4.75
2023-02-18T14:53:52.156Z,6.53
2023-02-18T14:58:01.869Z,2.80
2023-02-18T15:02:03.429Z,5.68
2023-02-18T15:06:22.304Z,5.70
2023-02-18T15:10:29.187Z,3.70
2023-02-18T15:14:35.500Z,3.70
2023-02-18T15:18:40.543Z,4.88
2023-02-18T15:22:42.359Z,5.00
2023-02-18T15:26:47.435Z,11.02
2023-02-18T15:30:50.729Z,5.57
2023-02-18T15:34:53.516Z,8.10
2023-02-18T15:38:56.939Z,7.55
2023-02-18T15:43:01.131Z,5.38
2023-02-18T15:47:06.805Z,3.88
2023-02-18T15:51:17.240Z,7.85
2023-02-18T15:55:26.499Z,8.43
2023-02-18T15:59:30.107Z,6.18
2023-02-18T16:03:44.807Z,2.75
2023-02-18T16:07:51.891Z,2.92
2023-02-18T16:11:56.547Z,11.02
2023-02-18T16:16:00.973Z,4.50
2023-02-18T16:20:17.036Z,3.75
2023-02-18T16:24:25.586Z,5.15
2023-02-18T16:28:32.599Z,8.98
2023-02-18T16:32:34.038Z,3.10
2023-02-18T16:36:37.008Z,4.55
2023-02-18T16:40:39.450Z,4.72
2023-02-18T16:44:41.282Z,4.68
2023-02-18T16:48:45.361Z,7.75
2023-02-18T16:52:48.783Z,5.90
2023-02-18T16:56:50.220Z,9.00
2023-02-18T17:00:52.024Z,3.65
2023-02-18T17:04:53.494Z,5.25
2023-02-18T17:08:56.370Z,4.53
2023-02-18T17:12:57.852Z,5.22
2023-02-18T17:16:59.303Z,7.63
2023-02-18T17:21:00.830Z,7.28
2023-02-18T17:25:12.037Z,4.97
2023-02-18T17:29:13.787Z,5.68
2023-02-18T17:33:18.182Z,5.10
2023-02-18T17:37:19.740Z,4.90
2023-02-18T17:41:22.786Z,9.25
2023-02-18T17:45:27.877Z,3.90
2023-02-18T17:49:29.453Z,4.78
2023-02-18T17:53:31.001Z,5.70
2023-02-18T17:57:33.842Z,9.70
2023-02-18T18:01:35.906Z,3.88
2023-02-18T18:05:39.939Z,5.65
2023-02-18T18:09:41.474Z,4.85
2023-02-18T18:13:44.650Z,4.47
2023-02-18T18:17:46.211Z,5.82
2023-02-18T18:21:47.722Z,5.07
2023-02-18T18:25:51.321Z,4.78
2023-02-18T18:29:54.217Z,4.35
2023-02-18T18:33:55.976Z,4.97
2023-02-18T18:37:58.521Z,6.60
2023-02-18T18:42:00.112Z,3.80
2023-02-18T18:46:03.085Z,9.15
2023-02-18T18:50:04.903Z,6.85
2023-02-18T18:54:06.491Z,15.18
2023-02-18T18:58:07.998Z,5.40
2023-02-18T19:02:15.645Z,4.25
2023-02-18T19:06:17.411Z,4.65
2023-02-18T19:10:19.832Z,4.13
2023-02-18T19:14:21.289Z,4.85
2023-02-18T19:18:24.057Z,5.22
2023-02-18T19:22:25.655Z,4.45
2023-02-18T19:26:28.088Z,9.05
2023-02-18T19:30:34.233Z,4.03
2023-02-18T19:38:38.933Z,4.75
2023-02-18T19:42:41.019Z,6.38
2023-02-18T19:46:42.554Z,7.75
2023-02-18T19:50:45.403Z,7.13
2023-02-18T19:54:47.575Z,4.93
2023-02-18T19:58:48.987Z,8.13
2023-02-18T20:02:50.804Z,6.38
2023-02-18T20:06:53.748Z,7.00
2023-02-18T20:10:58.718Z,21.73
2023-02-18T20:15:00.263Z,4.57
2023-02-18T20:19:01.753Z,8.98
2023-02-18T20:23:04.565Z,4.97
2023-02-18T20:27:07.414Z,8.15
2023-02-18T20:31:11.605Z,6.30
2023-02-18T20:35:13.435Z,6.93
2023-02-18T20:39:17.029Z,8.88
2023-02-18T20:43:18.466Z,6.28
2023-02-18T20:47:20.024Z,4.68
2023-02-18T20:51:22.561Z,5.82
2023-02-18T20:55:25.492Z,5.95
2023-02-18T20:59:27.038Z,10.00
2023-02-18T21:03:28.993Z,7.55
2023-02-18T21:07:30.444Z,8.50
2023-02-18T21:11:33.673Z,10.55
2023-02-18T21:15:36.799Z,7.05
2023-02-18T21:19:38.220Z,9.75
2023-02-18T21:23:40.001Z,5.53
2023-02-18T21:27:42.785Z,3.42
2023-02-18T21:31:44.518Z,4.75
2023-02-18T21:35:46.052Z,7.60
2023-02-18T21:39:47.546Z,9.20
2023-02-18T21:43:50.673Z,4.93
2023-02-18T21:47:52.298Z,8.05
2023-02-18T21:51:53.727Z,10.85
2023-02-18T21:56:03.254Z,10.73
2023-02-18T22:00:19.677Z,6.65
2023-02-18T22:04:22.413Z,10.50
2023-02-18T22:08:23.893Z,6.88
2023-02-18T22:12:25.893Z,10.98
2023-02-18T22:16:28.799Z,8.93
2023-02-18T22:20:30.350Z,9.13
2023-02-18T22:24:32.210Z,5.25
2023-02-18T22:28:34.079Z,7.30
2023-02-18T22:32:36.885Z,9.38
2023-02-18T22:36:38.943Z,8.00
2023-02-18T22:40:40.373Z,6.32
2023-02-18T22:44:41.923Z,7.55
2023-02-18T22:48:45.193Z,10.57
2023-02-18T22:52:46.965Z,9.00
2023-02-18T22:56:48.831Z,10.43
2023-02-18T23:00:50.316Z,7.35
2023-02-18T23:04:53.095Z,9.93
2023-02-18T23:08:54.867Z,8.95
2023-02-18T23:12:56.326Z,9.55
2023-02-18T23:16:59.223Z,11.23
2023-02-18T23:21:03.754Z,10.23
2023-02-18T23:25:05.983Z,10.48
2023-02-18T23:29:07.529Z,8.80
2023-02-18T23:33:09.048Z,8.63
2023-02-18T23:37:12.016Z,9.75
2023-02-18T23:41:13.451Z,8.75
2023-02-18T23:45:15.115Z,8.35
2023-02-18T23:49:18.246Z,9.65
2023-02-18T23:53:24.660Z,11.05
2023-02-18T23:57:30.248Z,10.10
